VTCL

Details ICAO VTCL (LPT)
Name Lampang
Region Thailand
Timezone Asia/Bangkok (UTC+7.0)
Plans Departing 1
Arriving 10
Stats Elevation 811 ft / 247 m (AMSL)
Location 18.270916° 99.504250°
Runways 1
Magnetic Variation 0.745° W
Sunrise 2017-12-11 23:45:30 UTC / 2017-12-12 06:45:30 Local
Sunset 2017-12-12 10:48:32 UTC / 2017-12-12 17:48:32 Local
Advertisement - Login to hide

Runways

ID Width Length Bearing (true) Bearing (mag) Surface Threshold Offset Overrun Length
18 95 ft / 29 m 6,496 ft / 1,980 m 175.46° 176.21° Asphalt 660 ft / 201 m 0 ft / 0 m
36 95 ft / 29 m 6,496 ft / 1,980 m 355.46° 356.21° Asphalt 330 ft / 101 m 0 ft / 0 m

Approach Navaids

Runway Type Ident Frequency Range Bearing (true) Bearing (mag) Slope Elevation
36 Localiser ILPN 109.70 MHz 18 nm / 33 km 355.21° 355.96° - 789 ft / 240 m (AMSL)
36 DME ILPN 109.70 MHz 18 nm / 33 km - - - 789 ft / 240 m (AMSL)

Map

Weather


0- 5 10 15 20 25 30 35+ Temperature / ° C

Clouds and Precipitation
Forecast for 2017-12-12 06:00 UTC. Updated an hour ago

Ground ~20,000 ft ~40,000 ft Winds

METAR

Not found

TAF

TAF VTCL 120500Z 1206/1306 19005KT 9999 FEW035 BECMG 1221/1223 3000 BR BECMG 1302/1304 9999 NSW

Frequencies

Tower 122.30 MHz TWR
Approach 119.30 MHz APP
Warning: Do not use this data for real-world aviation or navigation. No guarantee of current accuracy is given.